createdAt,value
2017-03-04T00:00:12.059Z,65.10
2017-03-04T00:00:33.861Z,65.28
2017-03-04T00:00:55.640Z,65.67
2017-03-04T00:01:22.149Z,65.70
2017-03-04T00:01:44.017Z,65.72
2017-03-04T00:02:05.944Z,65.55
2017-03-04T00:02:27.657Z,65.46
2017-03-04T00:02:49.495Z,65.40
2017-03-04T00:03:15.996Z,65.58
2017-03-04T00:03:40.567Z,65.94
2017-03-04T00:04:11.830Z,66.25
2017-03-04T00:04:33.581Z,66.36
2017-03-04T00:05:40.858Z,66.16
2017-03-04T00:06:02.775Z,66.12
2017-03-04T00:06:34.063Z,66.01
2017-03-04T00:06:58.386Z,65.76
2017-03-04T00:07:20.184Z,65.86
2017-03-04T00:07:41.907Z,65.81
2017-03-04T00:08:45.148Z,65.77
2017-03-04T00:09:06.858Z,65.80
2017-03-04T00:09:28.581Z,65.64
2017-03-04T00:09:50.323Z,65.61
2017-03-04T00:10:12.136Z,65.81
2017-03-04T00:10:33.848Z,65.87
2017-03-04T00:11:36.933Z,66.33
2017-03-04T00:11:58.735Z,65.85
2017-03-04T00:13:10.802Z,65.55
2017-03-04T00:13:32.608Z,65.60
2017-03-04T00:13:54.336Z,65.55
2017-03-04T00:14:20.805Z,65.62
2017-03-04T00:14:42.543Z,65.47
2017-03-04T00:15:45.173Z,65.70
2017-03-04T00:16:11.647Z,65.32
2017-03-04T00:16:33.365Z,65.46
2017-03-04T00:16:59.865Z,65.36
2017-03-04T00:17:21.586Z,65.48
2017-03-04T00:17:43.380Z,65.34
2017-03-04T00:18:14.636Z,65.15
2017-03-04T00:18:39.085Z,64.98
2017-03-04T00:19:05.660Z,65.08
2017-03-04T00:19:27.375Z,64.98
2017-03-04T00:19:49.096Z,65.07
2017-03-04T00:20:20.345Z,65.08
2017-03-04T00:20:42.066Z,65.14
2017-03-04T00:21:06.608Z,65.21
2017-03-04T00:21:28.355Z,65.67
2017-03-04T00:21:50.085Z,65.80
2017-03-04T00:22:21.454Z,65.68
2017-03-04T00:22:45.589Z,65.70
2017-03-04T00:23:10.081Z,66.23
2017-03-04T00:23:31.909Z,66.16
2017-03-04T00:23:58.380Z,65.44
2017-03-04T00:24:22.948Z,65.41
2017-03-04T00:24:44.657Z,65.52
2017-03-04T00:25:06.393Z,65.63
2017-03-04T00:26:11.885Z,66.29
2017-03-04T00:26:33.780Z,66.28
2017-03-04T00:27:00.258Z,66.25
2017-03-04T00:27:22.056Z,66.22
2017-03-04T00:27:43.812Z,66.20
2017-03-04T00:28:10.393Z,66.28
2017-03-04T00:28:32.213Z,66.32
2017-03-04T00:28:58.696Z,66.47
2017-03-04T00:29:20.404Z,66.25
2017-03-04T00:30:23.018Z,66.29
2017-03-04T00:30:45.553Z,65.95
2017-03-04T00:31:16.053Z,66.13
2017-03-04T00:31:37.845Z,65.93
2017-03-04T00:31:59.565Z,65.91
2017-03-04T00:32:24.229Z,65.86
2017-03-04T00:32:46.969Z,65.79
2017-03-04T00:33:47.335Z,65.78
2017-03-04T00:34:18.621Z,65.53
2017-03-04T00:34:49.949Z,65.34
2017-03-04T00:36:39.023Z,64.96
2017-03-04T00:37:08.759Z,64.87
2017-03-04T00:38:06.722Z,64.89
2017-03-04T00:38:36.445Z,64.75
2017-03-04T00:38:58.194Z,64.95
2017-03-04T00:39:51.917Z,64.99
2017-03-04T00:40:19.611Z,64.73
2017-03-04T00:40:42.023Z,64.63
2017-03-04T00:41:08.869Z,64.70
2017-03-04T00:42:12.299Z,64.78
2017-03-04T00:42:34.234Z,64.69
2017-03-04T00:42:56.065Z,64.73
2017-03-04T00:43:17.877Z,64.80
2017-03-04T00:43:40.050Z,64.82
2017-03-04T00:44:03.345Z,64.52
2017-03-04T00:45:05.944Z,64.57
2017-03-04T00:46:46.178Z,64.68
2017-03-04T00:47:08.268Z,64.63
2017-03-04T00:47:30.003Z,64.72
2017-03-04T00:48:23.037Z,64.75
2017-03-04T00:48:50.799Z,64.76
2017-03-04T00:49:13.759Z,64.88
2017-03-04T00:50:07.427Z,65.15
2017-03-04T00:50:30.862Z,65.32
2017-03-04T00:50:55.592Z,65.54
2017-03-04T00:51:21.824Z,65.45
2017-03-04T00:51:43.979Z,65.30
2017-03-04T00:52:07.247Z,65.35
2017-03-04T00:52:32.086Z,65.39
2017-03-04T00:53:35.069Z,65.33
2017-03-04T00:55:04.386Z,65.53
2017-03-04T00:55:26.157Z,65.50
2017-03-04T00:55:48.284Z,65.21
2017-03-04T00:57:33.024Z,65.25
2017-03-04T00:57:55.274Z,65.29
2017-03-04T00:58:45.753Z,65.74
2017-03-04T00:59:08.348Z,66.69
2017-03-04T00:59:31.053Z,66.83
2017-03-04T00:59:59.528Z,66.67
2017-03-04T01:00:35.647Z,66.76
2017-03-04T01:01:39.067Z,67.00
2017-03-04T01:02:10.284Z,66.99
2017-03-04T01:02:48.792Z,66.94
2017-03-04T01:03:10.530Z,66.81
2017-03-04T01:03:32.270Z,66.78
2017-03-04T01:03:54.693Z,66.54
2017-03-04T01:04:16.522Z,66.46
2017-03-04T01:04:48.822Z,66.38
2017-03-04T01:05:51.536Z,65.61
2017-03-04T01:06:13.364Z,65.36
2017-03-04T01:06:36.506Z,65.35
2017-03-04T01:06:58.765Z,65.46
2017-03-04T01:07:21.118Z,65.97
2017-03-04T01:07:43.441Z,66.23
2017-03-04T01:08:40.873Z,66.46
2017-03-04T01:09:37.570Z,66.56
2017-03-04T01:10:01.068Z,67.20
2017-03-04T01:10:23.549Z,67.33
2017-03-04T01:10:45.939Z,66.32
2017-03-04T01:11:09.939Z,66.24
2017-03-04T01:11:37.204Z,66.44
2017-03-04T01:12:04.289Z,66.98
2017-03-04T01:12:26.289Z,67.40
2017-03-04T01:12:49.291Z,67.86
2017-03-04T01:13:11.531Z,68.05
2017-03-04T01:13:40.718Z,68.18
2017-03-04T01:14:03.593Z,68.69
2017-03-04T01:14:29.173Z,68.63
2017-03-04T01:14:57.028Z,68.41
2017-03-04T01:15:19.994Z,67.56
2017-03-04T01:16:10.243Z,67.43
2017-03-04T01:17:31.762Z,67.47
2017-03-04T01:18:39.967Z,67.92
2017-03-04T01:19:01.679Z,67.78
2017-03-04T01:19:28.280Z,67.92
2017-03-04T01:19:56.227Z,67.92
2017-03-04T01:20:26.152Z,67.86
2017-03-04T01:20:48.140Z,67.91
2017-03-04T01:21:50.676Z,68.12
2017-03-04T01:22:17.372Z,68.10
2017-03-04T01:22:40.030Z,68.24
2017-03-04T01:23:03.791Z,68.47
2017-03-04T01:23:26.349Z,68.50
2017-03-04T01:23:50.071Z,68.59
2017-03-04T01:24:11.820Z,68.28
2017-03-04T01:24:38.992Z,68.31
2017-03-04T01:25:06.053Z,68.24
2017-03-04T01:25:27.806Z,68.24
2017-03-04T01:25:50.202Z,68.39
2017-03-04T01:26:43.194Z,67.96
2017-03-04T01:27:05.934Z,67.78
2017-03-04T01:28:09.420Z,68.06
2017-03-04T01:29:21.601Z,68.32
2017-03-04T01:30:15.753Z,68.01
2017-03-04T01:30:37.654Z,67.83
2017-03-04T01:31:04.548Z,67.87
2017-03-04T01:32:02.362Z,68.35
2017-03-04T01:32:27.389Z,68.42
2017-03-04T01:32:49.152Z,68.53
2017-03-04T01:33:11.078Z,68.75
2017-03-04T01:33:36.431Z,68.90
2017-03-04T01:33:58.818Z,68.82
2017-03-04T01:34:20.810Z,68.73
2017-03-04T01:34:45.478Z,68.72
2017-03-04T01:35:07.824Z,68.47
2017-03-04T01:35:30.406Z,68.19
2017-03-04T01:35:53.695Z,68.05
2017-03-04T01:36:56.512Z,68.28
2017-03-04T01:37:31.739Z,68.33
2017-03-04T01:37:53.583Z,68.54
2017-03-04T01:38:23.975Z,68.73
2017-03-04T01:38:47.249Z,68.83
2017-03-04T01:39:21.633Z,68.43
2017-03-04T01:39:57.464Z,68.65
2017-03-04T01:40:24.554Z,68.61
2017-03-04T01:40:51.763Z,68.72
2017-03-04T01:41:19.009Z,68.23
2017-03-04T01:41:40.725Z,68.36
2017-03-04T01:42:02.437Z,68.19
2017-03-04T01:42:33.724Z,67.90
2017-03-04T01:42:55.458Z,68.05
2017-03-04T01:43:21.947Z,68.55
2017-03-04T01:43:43.639Z,68.55
2017-03-04T01:44:05.366Z,68.79
2017-03-04T01:44:31.842Z,68.83
2017-03-04T01:44:53.547Z,68.90
2017-03-04T01:45:15.241Z,69.08
2017-03-04T01:45:36.962Z,69.12
2017-03-04T01:45:58.651Z,68.98
2017-03-04T01:46:20.351Z,68.97
2017-03-04T01:46:42.054Z,69.14
2017-03-04T01:47:03.744Z,69.40
2017-03-04T01:47:25.449Z,69.40
2017-03-04T01:47:47.177Z,69.40
2017-03-04T01:48:08.876Z,69.50
2017-03-04T01:48:30.565Z,69.43
2017-03-04T01:49:01.820Z,69.79
2017-03-04T01:49:23.515Z,69.69
2017-03-04T01:49:45.215Z,69.58
2017-03-04T01:50:06.912Z,69.61
2017-03-04T01:50:28.613Z,69.66
2017-03-04T01:50:59.868Z,69.50
2017-03-04T01:51:21.567Z,69.47
2017-03-04T01:51:43.271Z,69.62
2017-03-04T01:52:04.972Z,69.56
2017-03-04T01:52:26.668Z,69.46
2017-03-04T01:52:48.396Z,69.43
2017-03-04T01:53:10.097Z,69.27
2017-03-04T01:53:31.816Z,69.23
2017-03-04T01:53:53.515Z,69.42
2017-03-04T01:54:15.231Z,69.28
2017-03-04T01:54:36.925Z,69.16
2017-03-04T01:54:58.611Z,68.97
2017-03-04T01:55:20.325Z,69.12
2017-03-04T01:55:42.016Z,69.03
2017-03-04T01:56:03.727Z,69.00
2017-03-04T01:56:25.426Z,68.93
2017-03-04T01:56:56.667Z,69.13
2017-03-04T01:57:18.367Z,69.08
2017-03-04T01:57:40.067Z,68.99
2017-03-04T01:58:01.789Z,68.96
2017-03-04T01:58:23.479Z,68.86
2017-03-04T01:58:45.176Z,68.82
2017-03-04T01:59:06.870Z,69.55
2017-03-04T01:59:28.572Z,69.91
2017-03-04T01:59:50.265Z,69.86
2017-03-04T02:00:11.960Z,69.98
2017-03-04T02:00:33.660Z,69.83
2017-03-04T02:00:55.366Z,69.46
2017-03-04T02:01:21.846Z,69.53
2017-03-04T02:01:43.551Z,69.60
2017-03-04T02:02:05.266Z,69.73
2017-03-04T02:02:36.514Z,69.57
2017-03-04T02:02:58.215Z,69.62
2017-03-04T02:03:19.925Z,69.54
2017-03-04T02:03:41.634Z,69.39
2017-03-04T02:04:03.330Z,69.67
2017-03-04T02:04:29.791Z,69.60
2017-03-04T02:04:51.484Z,69.41
2017-03-04T02:05:13.182Z,69.25
2017-03-04T02:05:34.893Z,69.27
2017-03-04T02:05:56.584Z,69.44
2017-03-04T02:06:18.299Z,69.29
2017-03-04T02:06:40.002Z,69.29
2017-03-04T02:07:01.707Z,69.05
2017-03-04T02:07:28.189Z,69.06
2017-03-04T02:07:49.898Z,68.98
2017-03-04T02:08:11.622Z,68.93
2017-03-04T02:08:33.330Z,69.09
2017-03-04T02:09:04.585Z,69.19
2017-03-04T02:09:26.290Z,69.27
2017-03-04T02:09:52.769Z,69.35
2017-03-04T02:10:14.462Z,69.47
2017-03-04T02:10:40.950Z,69.48
2017-03-04T02:11:02.653Z,69.80
2017-03-04T02:11:29.125Z,69.93
2017-03-04T02:11:50.814Z,70.00
2017-03-04T02:12:17.285Z,70.13
2017-03-04T02:12:38.973Z,70.13
2017-03-04T02:13:00.674Z,70.39
2017-03-04T02:13:31.929Z,70.30
2017-03-04T02:13:53.621Z,70.35
2017-03-04T02:14:15.321Z,70.10
2017-03-04T02:14:37.025Z,69.70
2017-03-04T02:14:58.722Z,69.24
2017-03-04T02:15:29.972Z,69.29
2017-03-04T02:15:51.688Z,69.35
2017-03-04T02:16:18.174Z,69.70
2017-03-04T02:16:39.865Z,70.15
2017-03-04T02:17:01.581Z,70.13
2017-03-04T02:17:59.873Z,70.44
2017-03-04T02:18:21.596Z,70.61
2017-03-04T02:18:43.311Z,70.45
2017-03-04T02:19:04.998Z,70.16
2017-03-04T02:19:26.705Z,69.92
2017-03-04T02:19:48.403Z,70.36
2017-03-04T02:20:10.108Z,70.34
2017-03-04T02:20:31.801Z,71.01
2017-03-04T02:20:53.505Z,71.18
2017-03-04T02:21:15.216Z,71.02
2017-03-04T02:21:36.913Z,70.88
2017-03-04T02:21:58.622Z,71.04
2017-03-04T02:22:25.105Z,71.15
2017-03-04T02:22:46.796Z,71.06
2017-03-04T02:23:08.494Z,70.77
2017-03-04T02:23:30.226Z,70.76
2017-03-04T02:23:51.925Z,70.90
2017-03-04T02:24:13.617Z,70.75
2017-03-04T02:24:40.107Z,70.61
2017-03-04T02:25:01.794Z,70.53
2017-03-04T02:25:23.508Z,70.62
2017-03-04T02:25:45.219Z,70.53
2017-03-04T02:26:06.919Z,70.77
2017-03-04T02:26:28.629Z,70.83
2017-03-04T02:26:55.106Z,70.81
2017-03-04T02:27:16.804Z,70.63
2017-03-04T02:27:38.504Z,70.44
2017-03-04T02:28:00.207Z,70.57
2017-03-04T02:28:21.900Z,70.69
2017-03-04T02:28:43.623Z,70.73
2017-03-04T02:29:10.092Z,70.21
2017-03-04T02:29:31.791Z,70.23
2017-03-04T02:29:53.493Z,70.20
2017-03-04T02:30:15.201Z,70.17
2017-03-04T02:30:36.901Z,70.09
2017-03-04T02:30:58.616Z,70.16
2017-03-04T02:31:20.321Z,70.12
2017-03-04T02:31:42.020Z,70.27
2017-03-04T02:32:03.705Z,70.42
2017-03-04T02:32:25.410Z,70.55
2017-03-04T02:32:47.108Z,70.51
2017-03-04T02:33:08.803Z,70.58
2017-03-04T02:33:30.520Z,70.43
2017-03-04T02:33:52.234Z,70.28
2017-03-04T02:34:18.703Z,70.31
2017-03-04T02:34:40.399Z,70.42
2017-03-04T02:35:02.091Z,70.37
2017-03-04T02:35:23.797Z,70.07
2017-03-04T02:35:50.271Z,70.27
2017-03-04T02:36:11.987Z,70.66
2017-03-04T02:36:33.686Z,70.46
2017-03-04T02:37:00.166Z,70.61
2017-03-04T02:37:21.864Z,70.87
2017-03-04T02:37:48.337Z,70.95
2017-03-04T02:38:10.034Z,70.79
2017-03-04T02:38:36.513Z,70.56
2017-03-04T02:38:58.249Z,70.50
2017-03-04T02:39:19.954Z,70.27
2017-03-04T02:39:41.652Z,70.05
2017-03-04T02:40:29.854Z,69.63
2017-03-04T02:40:51.529Z,69.71
2017-03-04T02:41:18.008Z,69.85
2017-03-04T02:41:39.708Z,70.21
2017-03-04T02:42:01.403Z,70.19
2017-03-04T02:42:27.872Z,70.06
2017-03-04T02:42:49.570Z,70.14
2017-03-04T02:43:11.271Z,70.37
2017-03-04T02:43:33.086Z,70.35
2017-03-04T02:43:54.661Z,70.11
2017-03-04T02:44:16.368Z,70.22
2017-03-04T02:45:18.872Z,70.50
2017-03-04T02:45:40.574Z,70.49
2017-03-04T02:46:02.267Z,70.60
2017-03-04T02:46:23.958Z,70.62
2017-03-04T02:46:55.211Z,70.54
2017-03-04T02:47:16.901Z,70.45
2017-03-04T02:47:43.396Z,70.53
2017-03-04T02:48:05.100Z,70.35
2017-03-04T02:48:26.802Z,70.26
2017-03-04T02:48:48.500Z,70.44
2017-03-04T02:49:10.242Z,70.98
2017-03-04T02:49:36.715Z,71.24
2017-03-04T02:49:58.421Z,71.40
2017-03-04T02:50:20.115Z,71.29
2017-03-04T02:50:46.592Z,71.27
2017-03-04T02:51:08.287Z,71.02
2017-03-04T02:51:34.784Z,71.00
2017-03-04T02:51:56.485Z,70.96
2017-03-04T02:52:22.969Z,71.15
2017-03-04T02:52:44.660Z,71.38
2017-03-04T02:53:11.145Z,71.49
2017-03-04T02:53:32.856Z,71.50
2017-03-04T02:53:54.555Z,71.55
2017-03-04T02:54:16.286Z,71.66
2017-03-04T02:54:38.005Z,71.65
2017-03-04T02:54:59.702Z,71.69
2017-03-04T02:55:21.404Z,71.76
2017-03-04T02:55:47.871Z,71.72
2017-03-04T02:56:09.576Z,71.62
2017-03-04T02:56:31.272Z,71.27
2017-03-04T02:56:53.067Z,71.22
2017-03-04T02:57:14.757Z,71.26
2017-03-04T02:57:36.449Z,71.18
2017-03-04T02:57:58.140Z,71.13
2017-03-04T02:58:19.854Z,71.18
2017-03-04T02:58:41.550Z,71.49
2017-03-04T02:59:03.253Z,71.42
2017-03-04T02:59:24.968Z,71.52
2017-03-04T02:59:51.456Z,71.49
2017-03-04T03:00:13.150Z,71.44
2017-03-04T03:00:34.869Z,71.40
2017-03-04T03:00:56.568Z,71.31
2017-03-04T03:01:20.993Z,71.17
2017-03-04T03:01:42.690Z,70.86
2017-03-04T03:02:04.376Z,70.58
2017-03-04T03:02:35.632Z,70.59
2017-03-04T03:02:57.326Z,70.34
2017-03-04T03:03:23.794Z,70.04
2017-03-04T03:03:45.490Z,70.05
2017-03-04T03:04:07.188Z,70.14
2017-03-04T03:04:28.910Z,70.20
2017-03-04T03:04:50.597Z,70.26
2017-03-04T03:05:12.311Z,70.42
2017-03-04T03:05:38.783Z,70.55
2017-03-04T03:06:00.488Z,70.63
2017-03-04T03:06:22.187Z,70.63
2017-03-04T03:06:43.884Z,70.43
2017-03-04T03:07:05.600Z,70.48
2017-03-04T03:07:27.291Z,70.59
2017-03-04T03:07:53.758Z,70.78
2017-03-04T03:08:15.457Z,70.99
2017-03-04T03:08:37.154Z,71.11
2017-03-04T03:08:58.864Z,71.16
2017-03-04T03:09:20.562Z,71.37
2017-03-04T03:09:42.280Z,71.37
2017-03-04T03:10:03.980Z,71.59
2017-03-04T03:10:25.680Z,71.60
2017-03-04T03:10:47.375Z,71.62
2017-03-04T03:11:13.858Z,71.63
2017-03-04T03:11:35.551Z,71.63
2017-03-04T03:11:57.262Z,71.35
2017-03-04T03:12:18.964Z,71.13
2017-03-04T03:12:40.666Z,71.39
2017-03-04T03:13:02.352Z,71.39
2017-03-04T03:13:24.061Z,71.45
2017-03-04T03:13:45.752Z,71.31
2017-03-04T03:14:07.451Z,71.36
2017-03-04T03:14:29.187Z,71.25
2017-03-04T03:14:50.872Z,71.28
2017-03-04T03:15:12.565Z,71.23
2017-03-04T03:15:39.045Z,71.27
2017-03-04T03:16:27.220Z,71.69
2017-03-04T03:16:48.913Z,71.83
2017-03-04T03:17:10.636Z,71.98
2017-03-04T03:17:37.116Z,71.96
2017-03-04T03:17:58.802Z,71.77
2017-03-04T03:18:25.280Z,71.71
2017-03-04T03:18:46.983Z,71.65
2017-03-04T03:19:08.703Z,71.64
2017-03-04T03:19:30.424Z,71.72
2017-03-04T03:19:52.126Z,71.70
2017-03-04T03:20:13.820Z,71.50
2017-03-04T03:20:40.313Z,71.25
2017-03-04T03:21:01.988Z,71.21
2017-03-04T03:21:23.686Z,71.38
2017-03-04T03:21:45.420Z,71.45
2017-03-04T03:22:07.116Z,71.35
2017-03-04T03:22:28.809Z,71.44
2017-03-04T03:22:55.286Z,71.33
2017-03-04T03:23:16.989Z,71.36
2017-03-04T03:23:43.472Z,71.42
2017-03-04T03:24:05.174Z,71.46
2017-03-04T03:24:26.875Z,71.35
2017-03-04T03:24:48.581Z,71.31
2017-03-04T03:25:10.275Z,71.22
2017-03-04T03:25:36.753Z,71.15
2017-03-04T03:25:58.448Z,71.20
2017-03-04T03:26:20.140Z,71.17
2017-03-04T03:26:41.849Z,71.17
2017-03-04T03:27:03.542Z,71.22
2017-03-04T03:27:25.241Z,71.41
2017-03-04T03:27:46.954Z,71.54
2017-03-04T03:28:08.661Z,71.49
2017-03-04T03:28:30.351Z,71.63
2017-03-04T03:28:52.054Z,71.40
2017-03-04T03:29:13.756Z,71.44
2017-03-04T03:29:35.490Z,71.46
2017-03-04T03:30:01.952Z,71.56
2017-03-04T03:30:23.645Z,71.58
2017-03-04T03:30:54.890Z,71.32
2017-03-04T03:31:16.585Z,71.28
2017-03-04T03:31:47.836Z,71.25
2017-03-04T03:32:09.532Z,71.36
2017-03-04T03:32:31.221Z,71.37
2017-03-04T03:32:52.927Z,71.20
2017-03-04T03:33:14.625Z,71.03
2017-03-04T03:33:41.097Z,71.14
2017-03-04T03:34:02.792Z,71.24
2017-03-04T03:34:24.495Z,71.00
2017-03-04T03:34:46.219Z,71.09
2017-03-04T03:35:07.904Z,71.17
2017-03-04T03:35:29.605Z,71.33
2017-03-04T03:35:51.307Z,71.09
2017-03-04T03:36:13.004Z,71.23
2017-03-04T03:36:34.711Z,71.17
2017-03-04T03:37:01.184Z,70.82
2017-03-04T03:37:22.879Z,70.68
2017-03-04T03:37:44.572Z,70.71
2017-03-04T03:38:06.286Z,70.67
2017-03-04T03:38:27.977Z,70.75
2017-03-04T03:38:49.679Z,70.81
2017-03-04T03:39:16.158Z,70.85
2017-03-04T03:39:37.859Z,70.57
2017-03-04T03:39:59.581Z,70.55
2017-03-04T03:40:21.289Z,70.96
2017-03-04T03:40:42.988Z,71.20
2017-03-04T03:41:04.678Z,71.18
2017-03-04T03:41:26.384Z,71.03
2017-03-04T03:41:48.076Z,71.34
2017-03-04T03:42:09.769Z,71.42
2017-03-04T03:42:36.238Z,71.21
2017-03-04T03:42:57.930Z,71.10
2017-03-04T03:43:19.635Z,71.05
2017-03-04T03:43:41.334Z,70.99
2017-03-04T03:44:05.847Z,70.96
2017-03-04T03:44:32.328Z,71.16
2017-03-04T03:44:54.031Z,71.05
2017-03-04T03:45:15.748Z,71.06
2017-03-04T03:45:37.448Z,70.79
2017-03-04T03:45:59.148Z,70.82
2017-03-04T03:46:25.627Z,71.10
2017-03-04T03:46:47.319Z,71.09
2017-03-04T03:47:09.009Z,70.96
2017-03-04T03:47:35.480Z,70.78
2017-03-04T03:47:57.171Z,70.77
2017-03-04T03:48:23.648Z,70.77
2017-03-04T03:48:45.337Z,70.73
2017-03-04T03:49:07.030Z,70.67
2017-03-04T03:49:33.504Z,70.88
2017-03-04T03:49:55.197Z,70.87
2017-03-04T03:50:16.924Z,70.80
2017-03-04T03:50:38.624Z,70.75
2017-03-04T03:51:03.236Z,70.73
2017-03-04T03:51:24.941Z,70.77
2017-03-04T03:51:46.652Z,70.70
2017-03-04T03:52:13.126Z,70.68
2017-03-04T03:52:34.826Z,70.62
2017-03-04T03:52:56.515Z,70.59
2017-03-04T03:53:22.987Z,70.34
2017-03-04T03:53:44.684Z,70.25
2017-03-04T03:54:11.155Z,70.30
2017-03-04T03:54:32.862Z,70.18
2017-03-04T03:54:54.552Z,70.23
2017-03-04T03:55:16.288Z,70.25
2017-03-04T03:55:37.983Z,70.48
2017-03-04T03:56:04.458Z,70.67
2017-03-04T03:56:26.155Z,70.63
2017-03-04T03:56:47.860Z,70.64
2017-03-04T03:57:19.117Z,70.40
2017-03-04T03:57:40.819Z,70.44
2017-03-04T03:58:07.298Z,70.54
2017-03-04T03:58:28.988Z,70.54
2017-03-04T03:59:56.491Z,70.55
2017-03-04T04:00:18.208Z,70.37
2017-03-04T04:00:39.914Z,70.47
2017-03-04T04:01:06.390Z,70.48
2017-03-04T04:01:28.087Z,70.60
2017-03-04T04:01:49.782Z,70.64
2017-03-04T04:02:11.484Z,70.46
2017-03-04T04:02:33.174Z,70.45
2017-03-04T04:02:54.871Z,70.39
2017-03-04T04:03:16.574Z,70.46
2017-03-04T04:03:38.272Z,70.54
2017-03-04T04:03:59.960Z,70.50
2017-03-04T04:04:26.426Z,70.38
2017-03-04T04:04:48.120Z,70.17
2017-03-04T04:05:09.821Z,70.12
2017-03-04T04:05:31.546Z,70.04
2017-03-04T04:05:53.238Z,70.04
2017-03-04T04:06:24.499Z,69.87
2017-03-04T04:06:46.201Z,69.99
2017-03-04T04:07:07.910Z,69.92
2017-03-04T04:07:29.613Z,70.11
2017-03-04T04:07:51.312Z,70.29
2017-03-04T04:08:17.801Z,70.22
2017-03-04T04:08:39.504Z,70.40
2017-03-04T04:09:01.223Z,70.69
2017-03-04T04:09:27.699Z,70.81
2017-03-04T04:09:49.389Z,70.91
2017-03-04T04:10:15.856Z,70.93
2017-03-04T04:10:37.588Z,71.06
2017-03-04T04:11:04.065Z,70.97
2017-03-04T04:11:25.764Z,70.90
2017-03-04T04:11:47.479Z,70.76
2017-03-04T04:12:59.527Z,70.58
2017-03-04T04:13:21.245Z,70.56
2017-03-04T04:13:42.944Z,70.54
2017-03-04T04:14:09.432Z,70.43
2017-03-04T04:14:31.123Z,70.36
2017-03-04T04:14:52.837Z,70.41
2017-03-04T04:15:14.540Z,70.41
2017-03-04T04:15:36.238Z,70.50
2017-03-04T04:15:57.962Z,70.86
2017-03-04T04:16:19.667Z,70.96
2017-03-04T04:16:41.364Z,70.92
2017-03-04T04:17:12.612Z,70.82
2017-03-04T04:17:34.304Z,70.85
2017-03-04T04:18:32.627Z,70.93
2017-03-04T04:18:54.326Z,71.04
2017-03-04T04:19:25.585Z,71.45
2017-03-04T04:19:47.295Z,71.79
2017-03-04T04:20:08.999Z,71.98
2017-03-04T04:20:30.697Z,72.10
2017-03-04T04:20:52.423Z,72.09
2017-03-04T04:21:18.902Z,72.05
2017-03-04T04:21:40.596Z,72.03
2017-03-04T04:22:02.301Z,72.21
2017-03-04T04:22:24.011Z,72.29
2017-03-04T04:22:45.705Z,72.16
2017-03-04T04:23:07.414Z,72.23
2017-03-04T04:23:29.113Z,72.08
2017-03-04T04:23:50.808Z,71.89
2017-03-04T04:24:12.502Z,71.78
2017-03-04T04:24:38.996Z,71.64
2017-03-04T04:25:00.679Z,71.74
2017-03-04T04:25:22.393Z,71.77
2017-03-04T04:25:48.871Z,72.31
2017-03-04T04:26:10.575Z,72.56
2017-03-04T04:26:37.043Z,72.21
2017-03-04T04:26:58.745Z,72.18
2017-03-04T04:27:25.216Z,72.28
2017-03-04T04:27:46.919Z,72.31
2017-03-04T04:28:13.385Z,72.79
2017-03-04T04:28:35.072Z,72.73
2017-03-04T04:28:56.778Z,72.69
2017-03-04T04:29:23.254Z,72.42
2017-03-04T04:29:44.953Z,72.44
2017-03-04T04:30:06.660Z,72.25
2017-03-04T04:30:28.368Z,72.08
2017-03-04T04:30:50.079Z,71.87
2017-03-04T04:31:11.798Z,71.75
2017-03-04T04:31:43.050Z,71.76
2017-03-04T04:32:04.762Z,71.73
2017-03-04T04:33:07.263Z,72.11
2017-03-04T04:33:28.977Z,72.20
2017-03-04T04:33:50.672Z,72.39
2017-03-04T04:34:12.364Z,72.42
2017-03-04T04:34:34.080Z,72.45
2017-03-04T04:34:55.777Z,72.51
2017-03-04T04:35:22.249Z,72.52
2017-03-04T04:35:43.950Z,72.63
2017-03-04T04:36:05.655Z,72.58
2017-03-04T04:36:27.377Z,72.26
2017-03-04T04:36:49.091Z,71.98
2017-03-04T04:37:20.339Z,71.94
2017-03-04T04:37:42.028Z,71.78
2017-03-04T04:38:03.738Z,71.70
2017-03-04T04:38:30.215Z,71.99
2017-03-04T04:38:51.910Z,72.33
2017-03-04T04:39:18.403Z,72.42
2017-03-04T04:39:40.096Z,72.48
2017-03-04T04:40:01.790Z,72.61
2017-03-04T04:40:23.494Z,72.69
2017-03-04T04:40:45.191Z,72.90
2017-03-04T04:41:06.892Z,73.03
2017-03-04T04:41:33.375Z,73.20
2017-03-04T04:41:55.075Z,73.32
2017-03-04T04:42:16.768Z,73.10
2017-03-04T04:42:38.471Z,73.01
2017-03-04T04:43:00.173Z,73.01
2017-03-04T04:43:21.880Z,73.14
2017-03-04T04:43:43.571Z,73.07
2017-03-04T04:44:05.279Z,73.41
2017-03-04T04:44:26.985Z,73.44
2017-03-04T04:44:53.492Z,73.56
2017-03-04T04:45:15.149Z,73.55
2017-03-04T04:45:36.844Z,73.48
2017-03-04T04:46:03.317Z,73.34
2017-03-04T04:46:25.031Z,73.51
2017-03-04T04:46:46.751Z,73.54
2017-03-04T04:47:08.454Z,73.52
2017-03-04T04:47:30.146Z,73.37
2017-03-04T04:47:51.843Z,73.72
2017-03-04T04:48:13.548Z,73.47
2017-03-04T04:48:35.243Z,73.42
2017-03-04T04:48:56.950Z,73.33
2017-03-04T04:49:28.198Z,73.37
2017-03-04T04:49:49.901Z,73.52
2017-03-04T04:50:11.589Z,73.62
2017-03-04T04:50:33.295Z,73.61
2017-03-04T04:50:54.985Z,73.53
2017-03-04T04:51:24.047Z,73.49
2017-03-04T04:51:45.785Z,73.43
2017-03-04T04:52:07.510Z,73.31
2017-03-04T04:52:29.206Z,73.27
2017-03-04T04:52:50.931Z,73.31
2017-03-04T04:53:17.423Z,73.32
2017-03-04T04:53:39.126Z,73.65
2017-03-04T04:54:05.601Z,73.56
2017-03-04T04:54:27.293Z,73.67
2017-03-04T04:54:53.769Z,73.53
2017-03-04T04:55:20.249Z,74.05
2017-03-04T04:55:41.938Z,74.13
2017-03-04T04:56:03.640Z,74.22
2017-03-04T04:56:30.114Z,74.37
2017-03-04T04:56:51.844Z,74.37
2017-03-04T04:57:18.324Z,74.37
2017-03-04T04:57:40.015Z,74.46
2017-03-04T04:58:06.485Z,74.88
2017-03-04T04:58:28.188Z,74.84
2017-03-04T04:58:49.898Z,74.82
2017-03-04T04:59:11.632Z,74.74
2017-03-04T04:59:33.337Z,74.60
2017-03-04T04:59:55.036Z,74.37
2017-03-04T05:00:16.739Z,73.88
2017-03-04T05:00:38.429Z,73.71
2017-03-04T05:01:00.122Z,73.51
2017-03-04T05:01:21.822Z,73.55
2017-03-04T05:01:53.095Z,73.54
2017-03-04T05:02:14.805Z,73.45
2017-03-04T05:02:36.509Z,73.38
2017-03-04T05:03:07.772Z,73.15
2017-03-04T05:03:29.475Z,73.02
2017-03-04T05:03:51.176Z,72.97
2017-03-04T05:04:17.661Z,73.04
2017-03-04T05:04:39.354Z,73.12
2017-03-04T05:05:01.053Z,72.92
2017-03-04T05:05:22.763Z,73.08
2017-03-04T05:05:44.458Z,73.24
2017-03-04T05:06:06.178Z,73.40
2017-03-04T05:06:27.887Z,73.32
2017-03-04T05:06:49.579Z,73.32
2017-03-04T05:07:16.067Z,73.21
2017-03-04T05:07:37.775Z,73.09
2017-03-04T05:08:09.030Z,72.92
2017-03-04T05:08:30.732Z,72.82
2017-03-04T05:08:52.442Z,72.94
2017-03-04T05:09:14.150Z,72.99
2017-03-04T05:09:35.999Z,72.98
2017-03-04T05:10:38.584Z,72.77
2017-03-04T05:11:05.051Z,72.71
2017-03-04T05:11:26.742Z,72.80
2017-03-04T05:12:14.956Z,73.04
2017-03-04T05:12:41.427Z,73.15
2017-03-04T05:13:03.129Z,73.13
2017-03-04T05:13:29.602Z,72.98
2017-03-04T05:13:56.090Z,73.09
2017-03-04T05:14:17.792Z,73.37
2017-03-04T05:14:44.266Z,73.48
2017-03-04T05:15:05.959Z,73.48
2017-03-04T05:15:32.480Z,73.48
2017-03-04T05:15:54.194Z,73.48
2017-03-04T05:16:20.672Z,73.43
2017-03-04T05:16:42.362Z,73.30
2017-03-04T05:17:04.073Z,73.20
2017-03-04T05:17:25.786Z,73.24
2017-03-04T05:17:57.135Z,73.30
2017-03-04T05:18:18.980Z,73.37
2017-03-04T05:18:50.274Z,73.34
2017-03-04T05:19:13.016Z,73.33
2017-03-04T05:19:34.741Z,73.23
2017-03-04T05:20:06.020Z,72.93
2017-03-04T05:20:27.779Z,73.03
2017-03-04T05:20:59.043Z,73.28
2017-03-04T05:21:20.786Z,73.14
2017-03-04T05:21:52.054Z,72.90
2017-03-04T05:22:13.804Z,72.85
2017-03-04T05:22:45.079Z,72.92
2017-03-04T05:23:06.817Z,73.03
2017-03-04T05:23:38.081Z,73.16
2017-03-04T05:23:59.804Z,73.04
2017-03-04T05:24:31.065Z,72.86
2017-03-04T05:24:52.810Z,72.79
2017-03-04T05:25:24.076Z,72.71
2017-03-04T05:25:45.801Z,72.50
2017-03-04T05:26:12.319Z,72.61
2017-03-04T05:26:34.077Z,72.64
2017-03-04T05:26:55.815Z,72.73
2017-03-04T05:27:22.310Z,72.82
2017-03-04T05:27:44.041Z,72.85
2017-03-04T05:28:46.596Z,72.73
2017-03-04T05:29:08.322Z,72.71
2017-03-04T05:29:30.072Z,72.59
2017-03-04T05:29:51.809Z,72.52
2017-03-04T05:31:03.885Z,72.51
2017-03-04T05:31:56.885Z,72.86
2017-03-04T05:32:23.384Z,72.97
2017-03-04T05:32:45.125Z,72.93
2017-03-04T05:33:11.636Z,72.83